createdAt,value
2019-05-06T00:00:26.286Z,10.40
2019-05-06T00:02:54.527Z,10.50
2019-05-06T00:05:21.269Z,10.40
2019-05-06T00:07:54.766Z,10.30
2019-05-06T00:10:30.644Z,10.40
2019-05-06T00:12:57.440Z,10.50
2019-05-06T00:15:26.369Z,10.50
2019-05-06T00:17:53.947Z,10.50
2019-05-06T00:20:20.852Z,10.50
2019-05-06T00:22:48.141Z,10.50
2019-05-06T00:25:19.212Z,10.50
2019-05-06T00:28:06.171Z,10.30
2019-05-06T00:30:34.545Z,10.00
2019-05-06T00:33:01.142Z,10.00
2019-05-06T00:35:27.689Z,10.10
2019-05-06T00:37:54.265Z,9.90
2019-05-06T00:40:25.577Z,9.70
2019-05-06T00:42:56.669Z,9.70
2019-05-06T00:45:24.387Z,9.90
2019-05-06T00:48:10.751Z,10.00
2019-05-06T00:50:37.466Z,10.00
2019-05-06T00:53:18.915Z,10.00
2019-05-06T00:55:45.307Z,10.00
2019-05-06T00:58:14.115Z,10.10
2019-05-06T01:00:40.298Z,10.20
2019-05-06T01:03:07.244Z,10.20
2019-05-06T01:05:33.863Z,10.20
2019-05-06T01:08:00.535Z,10.00
2019-05-06T01:10:27.224Z,9.90
2019-05-06T01:12:56.899Z,10.00
2019-05-06T01:15:25.473Z,10.20
2019-05-06T01:17:53.753Z,10.20
2019-05-06T01:20:21.603Z,10.20
2019-05-06T01:22:48.049Z,10.20
2019-05-06T01:25:14.768Z,10.20
2019-05-06T01:27:41.593Z,10.30
2019-05-06T01:30:09.434Z,10.20
2019-05-06T01:32:37.092Z,10.10
2019-05-06T01:35:24.494Z,10.10
2019-05-06T01:37:54.588Z,10.20
2019-05-06T01:40:45.862Z,10.30
2019-05-06T01:43:14.570Z,10.30
2019-05-06T01:45:41.194Z,10.40
2019-05-06T01:48:08.632Z,10.40
2019-05-06T01:50:35.172Z,10.40
2019-05-06T01:53:05.002Z,10.40
2019-05-06T01:55:31.478Z,10.40
2019-05-06T01:57:57.918Z,10.40
2019-05-06T02:00:24.455Z,10.40
2019-05-06T02:02:51.009Z,10.50
2019-05-06T02:05:17.507Z,10.50
2019-05-06T02:07:44.250Z,10.50
2019-05-06T02:10:10.994Z,10.50
2019-05-06T02:12:37.463Z,10.50
2019-05-06T02:15:04.843Z,10.50
2019-05-06T02:17:31.513Z,10.20
2019-05-06T02:19:58.064Z,10.30
2019-05-06T02:22:38.418Z,10.30
2019-05-06T02:25:09.974Z,10.40
2019-05-06T02:27:36.595Z,10.10
2019-05-06T02:30:26.648Z,10.00
2019-05-06T02:32:55.754Z,10.10
2019-05-06T02:35:26.392Z,10.10
2019-05-06T02:37:55.005Z,10.20
2019-05-06T02:40:27.057Z,10.00
2019-05-06T02:42:54.798Z,9.90
2019-05-06T02:45:24.114Z,9.90
2019-05-06T02:48:13.623Z,9.80
2019-05-06T02:50:44.461Z,9.70
2019-05-06T02:53:13.321Z,9.90
2019-05-06T02:55:39.593Z,9.90
2019-05-06T02:58:06.176Z,9.90
2019-05-06T03:00:33.076Z,9.90
2019-05-06T03:03:02.913Z,9.90
2019-05-06T03:05:29.377Z,9.80
2019-05-06T03:07:57.645Z,9.90
2019-05-06T03:10:25.434Z,10.00
2019-05-06T03:12:53.808Z,10.00
2019-05-06T03:15:23.643Z,10.10
2019-05-06T03:17:49.489Z,10.10
2019-05-06T03:20:40.085Z,10.00
2019-05-06T03:23:13.952Z,9.90
2019-05-06T03:25:43.945Z,9.90
2019-05-06T03:28:22.772Z,10.00
2019-05-06T03:31:06.933Z,9.90
2019-05-06T03:34:02.044Z,10.00
2019-05-06T03:36:23.693Z,9.80
2019-05-06T03:38:43.196Z,9.60
2019-05-06T03:41:09.758Z,9.60
2019-05-06T03:43:36.409Z,9.70
2019-05-06T03:46:16.808Z,9.70
2019-05-06T03:48:45.502Z,9.60
2019-05-06T03:51:13.513Z,9.50
2019-05-06T03:53:56.748Z,9.50
2019-05-06T03:56:23.843Z,9.50
2019-05-06T03:58:53.646Z,9.50
2019-05-06T04:01:23.636Z,9.70
2019-05-06T04:03:53.758Z,9.70
2019-05-06T04:06:17.868Z,9.80
2019-05-06T04:08:44.974Z,9.80
2019-05-06T04:11:14.185Z,9.80
2019-05-06T04:13:43.720Z,9.90
2019-05-06T04:16:13.791Z,9.90
2019-05-06T04:18:53.754Z,9.70
2019-05-06T04:21:28.209Z,9.50
2019-05-06T04:23:59.384Z,9.60
2019-05-06T04:26:46.612Z,9.50
2019-05-06T04:29:13.676Z,9.50
2019-05-06T04:31:43.337Z,9.60
2019-05-06T04:34:14.484Z,9.80
2019-05-06T04:36:37.434Z,9.70
2019-05-06T04:39:05.060Z,9.50
2019-05-06T04:41:34.257Z,9.50
2019-05-06T04:44:14.175Z,9.50
2019-05-06T04:46:44.011Z,9.60
2019-05-06T04:49:14.007Z,9.50
2019-05-06T04:51:37.950Z,9.40
2019-05-06T04:54:04.710Z,9.40
2019-05-06T04:56:33.282Z,9.30
2019-05-06T04:59:19.953Z,9.20
2019-05-06T05:01:47.235Z,9.20
2019-05-06T05:04:27.754Z,9.30
2019-05-06T05:06:44.242Z,9.40
2019-05-06T05:09:14.669Z,9.40
2019-05-06T05:11:42.537Z,9.50
2019-05-06T05:14:13.406Z,9.20
2019-05-06T05:16:58.039Z,9.30
2019-05-06T05:19:25.865Z,9.30
2019-05-06T05:21:54.329Z,9.20
2019-05-06T05:24:21.050Z,9.20
2019-05-06T05:26:53.606Z,9.30
2019-05-06T05:29:20.372Z,9.20
2019-05-06T05:31:47.029Z,9.20
2019-05-06T05:34:13.624Z,9.30
2019-05-06T05:36:42.469Z,9.20
2019-05-06T05:39:08.890Z,9.40
2019-05-06T05:41:35.581Z,9.50
2019-05-06T05:44:12.850Z,9.60
2019-05-06T05:46:39.554Z,9.70
2019-05-06T05:49:13.942Z,9.80
2019-05-06T05:51:42.453Z,9.80
2019-05-06T05:54:09.059Z,9.90
2019-05-06T05:56:35.709Z,9.90
2019-05-06T05:59:03.237Z,9.90
2019-05-06T06:01:32.473Z,10.00
2019-05-06T06:03:58.770Z,10.10
2019-05-06T06:06:25.615Z,10.10
2019-05-06T06:08:52.492Z,10.10
2019-05-06T06:11:22.947Z,10.10
2019-05-06T06:13:49.780Z,10.10
2019-05-06T06:16:24.240Z,10.10
2019-05-06T06:18:52.929Z,10.30
2019-05-06T06:21:28.200Z,10.40
2019-05-06T06:24:09.077Z,10.50
2019-05-06T06:26:35.963Z,10.60
2019-05-06T06:29:03.310Z,10.50
2019-05-06T06:31:42.670Z,10.20
2019-05-06T06:34:15.291Z,10.40
2019-05-06T06:37:02.473Z,10.40
2019-05-06T06:39:32.691Z,10.20
2019-05-06T06:41:59.111Z,9.90
2019-05-06T06:44:32.941Z,10.00
2019-05-06T06:46:59.511Z,10.20
2019-05-06T06:49:26.235Z,10.30
2019-05-06T06:51:53.295Z,10.40
2019-05-06T06:54:20.281Z,10.40
2019-05-06T06:57:01.877Z,10.30
2019-05-06T06:59:25.266Z,10.30
2019-05-06T07:01:56.427Z,10.10
2019-05-06T07:04:43.178Z,10.20
2019-05-06T07:07:12.973Z,10.40
2019-05-06T07:09:39.195Z,10.50
2019-05-06T07:12:05.943Z,10.60
2019-05-06T07:14:35.967Z,10.70
2019-05-06T07:17:02.445Z,10.80
2019-05-06T07:19:32.778Z,10.80
2019-05-06T07:21:59.619Z,10.90
2019-05-06T07:24:26.106Z,10.60
2019-05-06T07:27:00.341Z,10.60
2019-05-06T07:29:27.002Z,10.60
2019-05-06T07:31:54.933Z,10.70
2019-05-06T07:34:22.877Z,10.90
2019-05-06T07:37:03.563Z,10.90
2019-05-06T07:39:43.333Z,11.00
2019-05-06T07:42:22.742Z,10.80
2019-05-06T07:44:52.887Z,10.70
2019-05-06T07:47:37.206Z,10.70
2019-05-06T07:50:06.584Z,10.70
2019-05-06T07:52:33.255Z,10.70
2019-05-06T07:54:59.802Z,10.80
2019-05-06T07:57:26.388Z,10.60
2019-05-06T07:59:52.928Z,10.70
2019-05-06T08:02:33.172Z,11.10
2019-05-06T08:05:13.332Z,11.30
2019-05-06T08:07:42.119Z,11.30
2019-05-06T08:10:09.224Z,11.40
2019-05-06T08:12:36.059Z,11.50
2019-05-06T08:15:06.151Z,11.50
2019-05-06T08:17:34.901Z,11.60
2019-05-06T08:20:02.559Z,11.70
2019-05-06T08:22:33.285Z,11.60
2019-05-06T08:24:59.942Z,11.70
2019-05-06T08:27:26.515Z,11.60
2019-05-06T08:29:53.334Z,11.70
2019-05-06T08:32:20.000Z,11.80
2019-05-06T08:34:46.775Z,11.90
2019-05-06T08:37:27.050Z,12.00
2019-05-06T08:39:53.688Z,12.00
2019-05-06T08:42:22.323Z,12.20
2019-05-06T08:44:48.647Z,12.30
2019-05-06T08:47:15.293Z,12.40
2019-05-06T08:49:58.608Z,12.50
2019-05-06T08:52:27.034Z,12.60
2019-05-06T08:54:55.851Z,12.60
2019-05-06T08:57:22.840Z,12.60
2019-05-06T08:59:49.588Z,12.50
2019-05-06T09:02:16.414Z,12.50
2019-05-06T09:04:45.816Z,12.50
2019-05-06T09:07:12.416Z,12.50
2019-05-06T09:09:39.002Z,12.60
2019-05-06T09:12:07.587Z,12.70
2019-05-06T09:14:34.151Z,12.70
2019-05-06T09:17:02.613Z,12.80
2019-05-06T09:19:29.150Z,12.90
2019-05-06T09:22:09.060Z,12.80
2019-05-06T09:24:35.556Z,12.80
2019-05-06T09:27:23.776Z,12.90
2019-05-06T09:29:52.325Z,12.70
2019-05-06T09:32:22.668Z,12.80
2019-05-06T09:34:52.734Z,12.90
2019-05-06T09:37:20.410Z,12.90
2019-05-06T09:39:47.674Z,13.00
2019-05-06T09:42:14.725Z,13.00
2019-05-06T09:44:43.247Z,13.20
2019-05-06T09:47:12.749Z,13.30
2019-05-06T09:49:42.542Z,13.20
2019-05-06T09:52:23.128Z,13.30
2019-05-06T09:55:07.639Z,13.30
2019-05-06T09:57:58.824Z,13.40
2019-05-06T10:00:28.947Z,13.50
2019-05-06T10:02:55.741Z,13.50
2019-05-06T10:05:22.340Z,13.50
2019-05-06T10:07:49.097Z,13.50
2019-05-06T10:10:17.774Z,13.50
2019-05-06T10:12:45.332Z,13.50
2019-05-06T10:15:12.740Z,13.60
2019-05-06T10:17:39.639Z,13.70
2019-05-06T10:20:06.516Z,13.80
2019-05-06T10:22:34.033Z,13.90
2019-05-06T10:25:03.381Z,13.90
2019-05-06T10:27:52.488Z,13.90
2019-05-06T10:30:19.488Z,14.00
2019-05-06T10:32:47.947Z,14.20
2019-05-06T10:35:14.596Z,14.20
2019-05-06T10:38:03.028Z,14.10
2019-05-06T10:40:33.490Z,14.00
2019-05-06T10:43:32.559Z,14.20
2019-05-06T10:46:01.813Z,14.40
2019-05-06T10:48:29.718Z,14.20
2019-05-06T10:50:58.418Z,14.20
2019-05-06T10:53:25.155Z,14.20
2019-05-06T10:55:55.995Z,14.30
2019-05-06T10:58:22.867Z,14.40
2019-05-06T11:01:22.976Z,14.40
2019-05-06T11:03:56.543Z,14.40
2019-05-06T11:06:25.087Z,14.60
2019-05-06T11:08:52.526Z,14.60
2019-05-06T11:11:31.545Z,14.60
2019-05-06T11:13:52.102Z,14.60
2019-05-06T11:16:23.487Z,14.80
2019-05-06T11:18:53.326Z,14.70
2019-05-06T11:21:19.082Z,14.80
2019-05-06T11:23:46.267Z,14.60
2019-05-06T11:26:13.201Z,14.60
2019-05-06T11:28:45.047Z,14.70
2019-05-06T11:31:19.280Z,14.70
2019-05-06T11:34:02.981Z,14.80
2019-05-06T11:36:34.277Z,14.90
2019-05-06T11:39:00.945Z,14.90
2019-05-06T11:41:28.294Z,15.10
2019-05-06T11:43:54.946Z,15.20
2019-05-06T11:46:22.863Z,15.00
2019-05-06T11:49:09.616Z,14.90
2019-05-06T11:51:37.067Z,14.90
2019-05-06T11:54:16.508Z,14.90
2019-05-06T11:56:33.970Z,15.00
2019-05-06T11:59:22.752Z,15.10
2019-05-06T12:01:53.366Z,15.30
2019-05-06T12:04:19.564Z,15.20
2019-05-06T12:06:46.063Z,15.20
2019-05-06T12:09:33.084Z,15.40
2019-05-06T12:12:00.316Z,15.30
2019-05-06T12:14:26.888Z,15.50
2019-05-06T12:16:55.159Z,15.70
2019-05-06T12:19:22.489Z,15.60
2019-05-06T12:21:50.424Z,15.60
2019-05-06T12:24:17.425Z,15.80
2019-05-06T12:26:44.463Z,15.80
2019-05-06T12:29:12.706Z,15.90
2019-05-06T12:31:39.249Z,15.90
2019-05-06T12:34:05.746Z,15.80
2019-05-06T12:36:34.054Z,16.10
2019-05-06T12:39:17.210Z,16.20
2019-05-06T12:41:45.305Z,15.90
2019-05-06T12:44:13.136Z,15.80
2019-05-06T12:46:43.053Z,15.90
2019-05-06T12:49:12.572Z,15.80
2019-05-06T12:51:38.359Z,16.00
2019-05-06T12:54:04.812Z,16.00
2019-05-06T12:56:31.600Z,16.10
2019-05-06T12:58:58.241Z,16.30
2019-05-06T13:01:24.759Z,16.30
2019-05-06T13:03:52.569Z,16.10
2019-05-06T13:06:33.420Z,16.20
2019-05-06T13:09:04.115Z,16.50
2019-05-06T13:11:30.331Z,16.60
2019-05-06T13:14:00.680Z,16.60
2019-05-06T13:16:25.219Z,16.70
2019-05-06T13:18:54.386Z,16.50
2019-05-06T13:21:22.181Z,16.50
2019-05-06T13:23:50.461Z,16.50
2019-05-06T13:26:17.143Z,16.30
2019-05-06T13:28:46.332Z,16.10
2019-05-06T13:31:20.497Z,16.20
2019-05-06T13:33:55.307Z,16.40
2019-05-06T13:36:35.283Z,16.80
2019-05-06T13:39:13.665Z,17.10
2019-05-06T13:41:35.810Z,17.30
2019-05-06T13:44:13.452Z,17.20
2019-05-06T13:46:42.192Z,17.30
2019-05-06T13:49:13.139Z,17.10
2019-05-06T13:51:42.922Z,16.90
2019-05-06T13:54:12.775Z,16.90
2019-05-06T13:56:37.720Z,17.00
2019-05-06T13:59:24.081Z,17.10
2019-05-06T14:01:52.797Z,17.40
2019-05-06T14:04:24.105Z,17.80
2019-05-06T14:06:52.648Z,17.80
2019-05-06T14:09:31.260Z,17.80
2019-05-06T14:12:02.606Z,17.90
2019-05-06T14:14:29.140Z,18.30
2019-05-06T14:16:55.755Z,18.50
2019-05-06T14:19:22.608Z,18.40
2019-05-06T14:21:52.300Z,18.30
2019-05-06T14:24:19.126Z,18.40
2019-05-06T14:26:50.401Z,18.10
2019-05-06T14:29:24.881Z,18.20
2019-05-06T14:31:56.314Z,18.80
2019-05-06T14:34:23.164Z,19.00
2019-05-06T14:36:49.722Z,18.50
2019-05-06T14:39:18.331Z,18.60
2019-05-06T14:41:53.432Z,18.40
2019-05-06T14:44:20.149Z,18.40
2019-05-06T14:46:51.481Z,18.50
2019-05-06T14:49:18.144Z,18.30
2019-05-06T14:51:50.687Z,18.20
2019-05-06T14:54:17.289Z,18.10
2019-05-06T14:57:08.433Z,18.50
2019-05-06T14:59:34.887Z,18.80
2019-05-06T15:02:02.612Z,19.40
2019-05-06T15:04:29.369Z,19.10
2019-05-06T15:06:55.860Z,19.10
2019-05-06T15:09:22.726Z,19.00
2019-05-06T15:12:02.638Z,19.20
2019-05-06T15:14:29.415Z,19.80
2019-05-06T15:16:55.913Z,19.50
2019-05-06T15:19:22.835Z,19.00
2019-05-06T15:21:49.640Z,18.60
2019-05-06T15:24:16.236Z,18.90
2019-05-06T15:26:42.814Z,19.50
2019-05-06T15:29:09.501Z,20.90
2019-05-06T15:31:42.125Z,21.60
2019-05-06T15:34:24.502Z,23.80
2019-05-06T15:36:55.877Z,24.70
2019-05-06T15:39:23.657Z,23.10
2019-05-06T15:41:52.053Z,21.20
2019-05-06T15:44:18.814Z,20.40
2019-05-06T15:46:45.478Z,20.00
2019-05-06T15:49:12.362Z,19.40
2019-05-06T15:51:38.842Z,19.90
2019-05-06T15:54:19.310Z,20.40
2019-05-06T15:56:48.341Z,20.00
2019-05-06T15:59:15.134Z,19.60
2019-05-06T16:01:43.163Z,19.60
2019-05-06T16:04:12.114Z,19.70
2019-05-06T16:06:38.636Z,19.20
2019-05-06T16:09:05.481Z,19.60
2019-05-06T16:11:33.333Z,19.80
2019-05-06T16:13:59.939Z,20.10
2019-05-06T16:16:26.568Z,20.40
2019-05-06T16:18:53.428Z,20.10
2019-05-06T16:21:20.367Z,20.00
2019-05-06T16:24:05.261Z,20.10
2019-05-06T16:26:32.674Z,20.20
2019-05-06T16:28:59.435Z,20.00
2019-05-06T16:31:25.988Z,20.50
2019-05-06T16:33:52.689Z,19.40
2019-05-06T16:36:19.803Z,19.50
2019-05-06T16:39:07.258Z,19.50
2019-05-06T16:41:34.408Z,19.30
2019-05-06T16:44:02.139Z,19.40
2019-05-06T16:46:29.012Z,18.90
2019-05-06T16:48:55.762Z,18.90
2019-05-06T16:51:22.404Z,18.50
2019-05-06T16:53:52.536Z,18.30
2019-05-06T16:56:27.376Z,18.50
2019-05-06T16:59:02.990Z,18.90
2019-05-06T17:01:33.972Z,19.00
2019-05-06T17:04:14.312Z,18.90
2019-05-06T17:06:44.080Z,18.80
2019-05-06T17:09:20.088Z,18.50
2019-05-06T17:11:39.318Z,18.70
2019-05-06T17:14:06.410Z,18.70
2019-05-06T17:16:34.102Z,18.60
2019-05-06T17:19:03.432Z,18.90
2019-05-06T17:21:29.996Z,18.80
2019-05-06T17:24:16.531Z,18.30
2019-05-06T17:26:44.198Z,18.50
2019-05-06T17:29:22.708Z,18.40
2019-05-06T17:31:57.310Z,18.30
2019-05-06T17:34:25.907Z,18.20
2019-05-06T17:36:57.887Z,18.00
2019-05-06T17:39:25.377Z,18.20
2019-05-06T17:41:53.868Z,18.20
2019-05-06T17:44:22.764Z,18.20
2019-05-06T17:46:57.339Z,18.00
2019-05-06T17:49:25.792Z,17.90
2019-05-06T17:54:43.318Z,17.40
2019-05-06T17:57:12.200Z,17.40
2019-05-06T17:59:38.898Z,17.40
2019-05-06T18:02:10.388Z,17.00
2019-05-06T18:04:36.867Z,16.80
2019-05-06T18:07:17.060Z,16.80
2019-05-06T18:09:43.785Z,16.80
2019-05-06T18:12:12.342Z,16.80
2019-05-06T18:14:38.989Z,16.80
2019-05-06T18:17:06.082Z,16.90
2019-05-06T18:19:33.615Z,16.80
2019-05-06T18:22:02.533Z,16.80
2019-05-06T18:24:28.861Z,16.70
2019-05-06T18:26:56.202Z,16.50
2019-05-06T18:29:22.756Z,16.30
2019-05-06T18:32:03.740Z,16.00
2019-05-06T18:34:32.341Z,16.00
2019-05-06T18:37:12.874Z,15.90
2019-05-06T18:39:39.872Z,15.90
2019-05-06T18:42:16.953Z,15.80
2019-05-06T18:44:39.051Z,15.70
2019-05-06T18:47:05.757Z,15.70
2019-05-06T18:49:33.624Z,15.50
2019-05-06T18:52:02.009Z,15.40
2019-05-06T18:54:28.981Z,15.40
2019-05-06T18:56:55.661Z,15.30
2019-05-06T18:59:23.187Z,15.30
2019-05-06T19:01:50.145Z,15.20
2019-05-06T19:04:35.690Z,15.10
2019-05-06T19:07:10.719Z,15.10
2019-05-06T19:09:35.403Z,15.00
2019-05-06T19:12:03.517Z,15.00
2019-05-06T19:14:32.476Z,15.00
2019-05-06T19:16:59.094Z,14.90
2019-05-06T19:19:25.511Z,14.90
2019-05-06T19:21:52.482Z,14.70
2019-05-06T19:24:19.407Z,14.70
2019-05-06T19:26:47.217Z,14.60
2019-05-06T19:29:13.908Z,14.60
2019-05-06T19:31:44.750Z,14.50
2019-05-06T19:34:09.104Z,14.40
2019-05-06T19:36:35.862Z,14.50
2019-05-06T19:39:05.209Z,14.40
2019-05-06T19:41:33.182Z,14.30
2019-05-06T19:44:02.111Z,14.20
2019-05-06T19:46:28.552Z,14.20
2019-05-06T19:48:55.065Z,14.20
2019-05-06T19:51:22.561Z,14.20
2019-05-06T19:53:49.298Z,14.10
2019-05-06T19:56:15.853Z,14.10
2019-05-06T19:58:42.948Z,14.00
2019-05-06T20:01:10.479Z,14.00
2019-05-06T20:03:37.187Z,14.10
2019-05-06T20:06:05.913Z,14.00
2019-05-06T20:08:42.217Z,14.10
2019-05-06T20:11:18.132Z,14.00
2019-05-06T20:13:47.632Z,14.00
2019-05-06T20:16:16.361Z,14.00
2019-05-06T20:18:43.023Z,13.90
2019-05-06T20:21:11.643Z,13.90
2019-05-06T20:23:38.318Z,14.00
2019-05-06T20:26:05.068Z,14.00
2019-05-06T20:28:32.290Z,13.90
2019-05-06T20:30:58.894Z,13.90
2019-05-06T20:33:25.786Z,13.90
2019-05-06T20:35:53.617Z,13.90
2019-05-06T20:38:20.504Z,13.80
2019-05-06T20:40:47.088Z,13.90
2019-05-06T20:43:19.667Z,13.80
2019-05-06T20:45:42.941Z,13.90
2019-05-06T20:48:09.598Z,13.90
2019-05-06T20:50:36.348Z,13.80
2019-05-06T20:53:03.230Z,13.80
2019-05-06T20:55:35.247Z,13.80
2019-05-06T20:57:59.933Z,13.80
2019-05-06T21:00:26.479Z,13.70
2019-05-06T21:02:53.561Z,13.70
2019-05-06T21:05:22.645Z,13.60
2019-05-06T21:07:48.947Z,13.50
2019-05-06T21:10:17.286Z,13.50
2019-05-06T21:12:44.037Z,13.50
2019-05-06T21:15:13.353Z,13.40
2019-05-06T21:17:41.989Z,13.30
2019-05-06T21:20:09.727Z,13.30
2019-05-06T21:22:36.367Z,13.30
2019-05-06T21:25:06.242Z,13.10
2019-05-06T21:27:32.886Z,13.20
2019-05-06T21:30:02.522Z,13.20
2019-05-06T21:32:30.432Z,13.30
2019-05-06T21:34:57.224Z,13.20
2019-05-06T21:37:23.804Z,13.20
2019-05-06T21:39:50.281Z,13.20
2019-05-06T21:42:16.948Z,13.20
2019-05-06T21:44:43.527Z,13.20
2019-05-06T21:47:10.096Z,13.20
2019-05-06T21:49:36.686Z,13.20
2019-05-06T21:52:03.242Z,13.20
2019-05-06T21:54:29.861Z,13.20
2019-05-06T21:56:56.421Z,13.10
2019-05-06T21:59:22.838Z,13.10
2019-05-06T22:01:51.905Z,12.90
2019-05-06T22:04:18.008Z,12.90
2019-05-06T22:06:45.596Z,13.00
2019-05-06T22:09:14.580Z,13.00
2019-05-06T22:11:55.584Z,13.00
2019-05-06T22:14:23.010Z,13.10
2019-05-06T22:16:49.892Z,13.10
2019-05-06T22:19:16.619Z,13.10
2019-05-06T22:21:56.939Z,13.10
2019-05-06T22:24:25.371Z,13.00
2019-05-06T22:26:52.215Z,12.90
2019-05-06T22:29:24.368Z,12.70
2019-05-06T22:31:47.951Z,12.70
2019-05-06T22:34:15.805Z,12.60
2019-05-06T22:36:42.630Z,12.60
2019-05-06T22:39:09.179Z,12.50
2019-05-06T22:41:37.717Z,12.60
2019-05-06T22:44:13.335Z,12.50
2019-05-06T22:46:33.061Z,12.60
2019-05-06T22:49:19.705Z,12.60
2019-05-06T22:51:46.290Z,12.60
2019-05-06T22:54:12.780Z,12.60
2019-05-06T22:56:54.506Z,12.70
2019-05-06T22:59:34.123Z,12.70
2019-05-06T23:02:04.166Z,12.70
2019-05-06T23:04:32.794Z,12.80
2019-05-06T23:06:59.458Z,12.90
2019-05-06T23:09:47.304Z,12.90
2019-05-06T23:12:27.081Z,12.90
2019-05-06T23:14:53.544Z,12.90
2019-05-06T23:17:20.207Z,12.90
2019-05-06T23:19:46.821Z,12.90
2019-05-06T23:22:13.248Z,13.00
2019-05-06T23:24:39.893Z,13.00
2019-05-06T23:27:06.352Z,12.90
2019-05-06T23:29:32.990Z,12.90
2019-05-06T23:32:02.847Z,12.90
2019-05-06T23:34:28.852Z,12.80
2019-05-06T23:37:08.971Z,12.90
2019-05-06T23:40:14.906Z,12.80
2019-05-06T23:43:18.705Z,12.80
2019-05-06T23:46:22.855Z,12.80
2019-05-06T23:49:26.826Z,12.70
2019-05-06T23:52:31.990Z,12.60
2019-05-06T23:55:35.860Z,12.50
2019-05-06T23:58:02.072Z,12.40
